createdAt,value
2018-04-14T00:00:46.055Z,5.27
2018-04-14T00:03:12.634Z,4.90
2018-04-14T00:05:39.962Z,4.20
2018-04-14T00:08:07.284Z,4.87
2018-04-14T00:10:33.850Z,4.13
2018-04-14T00:13:00.506Z,6.03
2018-04-14T00:15:27.074Z,3.57
2018-04-14T00:17:53.628Z,5.77
2018-04-14T00:20:20.213Z,4.27
2018-04-14T00:22:46.781Z,5.10
2018-04-14T00:25:13.307Z,5.40
2018-04-14T00:27:39.936Z,3.93
2018-04-14T00:30:07.190Z,5.60
2018-04-14T00:32:34.477Z,9.17
2018-04-14T00:35:01.012Z,3.23
2018-04-14T00:37:27.538Z,3.87
2018-04-14T00:39:54.251Z,3.07
2018-04-14T00:42:21.546Z,4.20
2018-04-14T00:44:48.848Z,7.53
2018-04-14T00:47:15.387Z,3.83
2018-04-14T00:49:42.014Z,4.80
2018-04-14T00:52:08.579Z,8.27
2018-04-14T00:54:35.274Z,9.30
2018-04-14T00:57:01.889Z,2.83
2018-04-14T00:59:28.446Z,4.87
2018-04-14T01:01:55.008Z,2.30
2018-04-14T01:04:21.563Z,3.27
2018-04-14T01:06:48.205Z,2.40
2018-04-14T01:09:14.808Z,3.03
2018-04-14T01:11:41.409Z,4.17
2018-04-14T01:14:08.831Z,3.40
2018-04-14T01:16:35.402Z,3.13
2018-04-14T01:19:02.021Z,5.13
2018-04-14T01:21:28.595Z,2.93
2018-04-14T01:23:55.150Z,4.43
2018-04-14T01:26:21.781Z,3.87
2018-04-14T01:28:48.390Z,7.17
2018-04-14T01:31:14.986Z,3.83
2018-04-14T01:33:41.532Z,4.60
2018-04-14T01:36:08.207Z,4.70
2018-04-14T01:38:34.846Z,4.40
2018-04-14T01:41:01.424Z,6.57
2018-04-14T01:43:28.060Z,4.67
2018-04-14T01:45:54.612Z,3.60
2018-04-14T01:48:21.191Z,6.73
2018-04-14T01:50:47.758Z,2.47
2018-04-14T01:53:14.281Z,6.50
2018-04-14T01:55:40.817Z,4.70
2018-04-14T01:58:08.162Z,2.80
2018-04-14T02:00:34.697Z,7.57
2018-04-14T02:03:01.248Z,4.23
2018-04-14T02:05:27.922Z,2.43
2018-04-14T02:07:55.304Z,4.37
2018-04-14T02:10:21.899Z,3.43
2018-04-14T02:12:48.470Z,4.90
2018-04-14T02:15:15.051Z,2.80
2018-04-14T02:17:41.640Z,2.37
2018-04-14T02:20:08.949Z,2.63
2018-04-14T02:22:35.497Z,9.23
2018-04-14T02:25:02.062Z,3.17
2018-04-14T02:27:28.642Z,4.20
2018-04-14T02:29:55.189Z,5.27
2018-04-14T02:32:21.816Z,3.10
2018-04-14T02:34:48.365Z,4.83
2018-04-14T02:37:14.974Z,3.23
2018-04-14T02:39:41.624Z,3.83
2018-04-14T02:42:08.217Z,3.10
2018-04-14T02:44:35.525Z,3.70
2018-04-14T02:47:02.075Z,4.17
2018-04-14T02:49:28.634Z,4.47
2018-04-14T02:51:55.170Z,4.07
2018-04-14T02:54:21.828Z,4.93
2018-04-14T02:56:48.428Z,6.43
2018-04-14T02:59:14.992Z,3.10
2018-04-14T03:01:41.593Z,4.63
2018-04-14T03:04:08.656Z,5.90
2018-04-14T03:06:35.216Z,3.73
2018-04-14T03:09:02.623Z,4.93
2018-04-14T03:11:29.208Z,4.03
2018-04-14T03:13:55.748Z,6.07
2018-04-14T03:16:23.072Z,4.20
2018-04-14T03:18:49.691Z,2.87
2018-04-14T03:21:16.290Z,4.87
2018-04-14T03:23:42.879Z,5.63
2018-04-14T03:26:09.485Z,4.07
2018-04-14T03:28:36.081Z,7.10
2018-04-14T03:31:02.677Z,4.20
2018-04-14T03:33:30.107Z,3.47
2018-04-14T03:35:56.694Z,4.33
2018-04-14T03:38:23.315Z,6.17
2018-04-14T03:40:49.915Z,3.27
2018-04-14T03:43:16.513Z,4.63
2018-04-14T03:45:43.103Z,4.20
2018-04-14T03:48:09.695Z,3.67
2018-04-14T03:50:36.244Z,4.90
2018-04-14T03:53:03.573Z,5.00
2018-04-14T03:55:30.145Z,3.10
2018-04-14T03:57:56.699Z,7.93
2018-04-14T04:00:23.311Z,4.53
2018-04-14T04:02:49.913Z,3.40
2018-04-14T04:05:16.481Z,3.27
2018-04-14T04:07:43.072Z,6.10
2018-04-14T04:10:09.697Z,2.73
2018-04-14T04:12:36.323Z,6.10
2018-04-14T04:15:02.921Z,8.10
2018-04-14T04:17:29.491Z,4.23
2018-04-14T04:20:08.032Z,3.77
2018-04-14T04:22:46.667Z,2.87
2018-04-14T04:25:23.351Z,5.80
2018-04-14T04:27:49.932Z,3.40
2018-04-14T04:30:16.477Z,3.07
2018-04-14T04:32:43.055Z,3.00
2018-04-14T04:35:09.588Z,4.57
2018-04-14T04:37:36.198Z,5.83
2018-04-14T04:40:02.805Z,5.70
2018-04-14T04:42:30.077Z,3.63
2018-04-14T04:44:56.638Z,9.70
2018-04-14T04:47:23.243Z,8.13
2018-04-14T04:49:49.839Z,5.93
2018-04-14T04:52:16.424Z,5.63
2018-04-14T04:54:43.007Z,7.23
2018-04-14T04:57:09.586Z,5.07
2018-04-14T04:59:36.948Z,6.70
2018-04-14T05:02:03.587Z,4.87
2018-04-14T05:04:30.185Z,8.90
2018-04-14T05:06:56.763Z,3.40
2018-04-14T05:09:23.303Z,7.97
2018-04-14T05:11:49.841Z,11.97
2018-04-14T05:14:16.402Z,5.97
2018-04-14T05:16:42.997Z,15.50
2018-04-14T05:19:10.372Z,8.10
2018-04-14T05:21:37.883Z,14.00
2018-04-14T05:24:04.443Z,7.93
2018-04-14T05:26:31.480Z,9.57
2018-04-14T05:28:58.112Z,14.70
2018-04-14T05:31:24.665Z,8.27
2018-04-14T05:33:52.018Z,7.10
2018-04-14T05:36:18.570Z,10.83
2018-04-14T05:38:45.146Z,5.10
2018-04-14T05:41:14.905Z,6.03
2018-04-14T05:43:42.241Z,11.47
2018-04-14T05:46:08.845Z,9.40
2018-04-14T05:48:35.405Z,11.47
2018-04-14T05:51:01.954Z,10.53
2018-04-14T05:53:28.530Z,11.73
2018-04-14T05:55:55.097Z,7.67
2018-04-14T05:58:21.655Z,4.23
2018-04-14T06:00:48.210Z,4.87
2018-04-14T06:03:15.545Z,4.43
2018-04-14T06:05:42.078Z,7.27
2018-04-14T06:08:08.650Z,4.83
2018-04-14T06:10:35.202Z,6.60
2018-04-14T06:13:01.814Z,5.17
2018-04-14T06:15:29.092Z,4.83
2018-04-14T06:17:56.327Z,3.97
2018-04-14T06:20:23.649Z,3.27
2018-04-14T06:22:50.209Z,4.90
2018-04-14T06:25:17.557Z,5.57
2018-04-14T06:27:44.105Z,9.33
2018-04-14T06:30:11.494Z,7.23
2018-04-14T06:32:38.130Z,4.30
2018-04-14T06:35:04.697Z,4.93
2018-04-14T06:37:31.307Z,8.00
2018-04-14T06:39:57.912Z,7.33
2018-04-14T06:42:25.311Z,9.73
2018-04-14T06:44:51.968Z,5.17
2018-04-14T06:47:18.579Z,6.67
2018-04-14T06:49:45.167Z,6.00
2018-04-14T06:52:11.793Z,7.50
2018-04-14T06:54:38.470Z,6.03
2018-04-14T06:57:05.197Z,8.83
2018-04-14T06:59:32.520Z,6.83
2018-04-14T07:01:59.061Z,7.40
2018-04-14T07:04:25.653Z,3.37
2018-04-14T07:06:52.205Z,5.93
2018-04-14T07:09:19.487Z,3.77
2018-04-14T07:11:46.079Z,3.33
2018-04-14T07:14:12.676Z,3.90
2018-04-14T07:16:39.944Z,7.53
2018-04-14T07:19:07.207Z,4.70
2018-04-14T07:21:33.745Z,8.00
2018-04-14T07:24:00.337Z,6.73
2018-04-14T07:26:26.890Z,3.40
2018-04-14T07:28:54.177Z,3.40
2018-04-14T07:31:20.695Z,4.20
2018-04-14T07:33:47.247Z,3.30
2018-04-14T07:36:13.814Z,2.23
2018-04-14T07:38:40.394Z,2.50
2018-04-14T07:41:06.947Z,2.23
2018-04-14T07:43:33.519Z,3.03
2018-04-14T07:46:00.123Z,3.73
2018-04-14T07:48:26.745Z,2.30
2018-04-14T07:50:56.538Z,3.07
2018-04-14T07:53:23.180Z,2.47
2018-04-14T07:55:49.738Z,3.93
2018-04-14T07:58:16.337Z,5.07
2018-04-14T08:00:43.020Z,6.27
2018-04-14T08:03:10.396Z,4.07
2018-04-14T08:05:36.965Z,4.10
2018-04-14T08:08:03.546Z,2.87
2018-04-14T08:10:30.080Z,4.83
2018-04-14T08:12:56.616Z,3.77
2018-04-14T08:15:23.313Z,3.83
2018-04-14T08:17:49.885Z,5.53
2018-04-14T08:20:16.449Z,3.00
2018-04-14T08:22:43.041Z,3.00
2018-04-14T08:25:09.603Z,7.53
2018-04-14T08:27:36.188Z,3.23
2018-04-14T08:30:02.830Z,1.90
2018-04-14T08:32:29.398Z,3.40
2018-04-14T08:34:55.987Z,1.50
2018-04-14T08:37:22.673Z,5.33
2018-04-14T08:39:49.193Z,3.70
2018-04-14T08:42:15.760Z,1.70
2018-04-14T08:44:43.090Z,4.77
2018-04-14T08:47:09.585Z,6.83
2018-04-14T08:49:36.164Z,4.57
2018-04-14T08:52:02.805Z,4.90
2018-04-14T08:54:29.962Z,3.53
2018-04-14T08:56:56.958Z,2.97
2018-04-14T08:59:23.549Z,3.28
2018-04-14T09:01:50.885Z,2.30
2018-04-14T09:04:21.401Z,3.28
2018-04-14T09:06:48.005Z,2.42
2018-04-14T09:09:14.560Z,2.15
2018-04-14T09:11:41.195Z,1.67
2018-04-14T09:14:08.543Z,6.12
2018-04-14T09:16:35.132Z,2.05
2018-04-14T09:19:01.695Z,1.83
2018-04-14T09:21:28.429Z,3.08
2018-04-14T09:23:55.069Z,1.60
2018-04-14T09:26:21.592Z,2.47
2018-04-14T09:28:48.872Z,3.15
2018-04-14T09:31:15.474Z,5.00
2018-04-14T09:33:42.044Z,2.00
2018-04-14T09:36:08.593Z,1.60
2018-04-14T09:38:35.148Z,3.12
2018-04-14T09:41:01.670Z,2.05
2018-04-14T09:43:28.989Z,2.55
2018-04-14T09:45:55.631Z,2.42
2018-04-14T09:48:22.163Z,4.12
2018-04-14T09:50:49.434Z,3.47
2018-04-14T09:53:16.142Z,1.65
2018-04-14T09:55:42.718Z,2.90
2018-04-14T09:58:09.945Z,2.80
2018-04-14T10:00:43.211Z,1.50
2018-04-14T10:03:15.855Z,2.55
2018-04-14T10:05:42.403Z,1.83
2018-04-14T10:08:08.972Z,2.33
2018-04-14T10:10:35.566Z,3.45
2018-04-14T10:13:02.171Z,3.55
2018-04-14T10:15:29.490Z,1.80
2018-04-14T10:17:56.063Z,2.92
2018-04-14T10:20:22.660Z,3.50
2018-04-14T10:22:50.012Z,1.62
2018-04-14T10:25:17.496Z,3.33
2018-04-14T10:27:48.563Z,3.70
2018-04-14T10:30:15.197Z,2.97
2018-04-14T10:32:41.830Z,2.15
2018-04-14T10:35:08.541Z,2.40
2018-04-14T10:37:35.369Z,2.65
2018-04-14T10:40:01.997Z,2.95
2018-04-14T10:42:28.602Z,1.90
2018-04-14T10:44:55.141Z,5.20
2018-04-14T10:47:21.745Z,9.27
2018-04-14T10:49:49.305Z,3.70
2018-04-14T10:52:15.920Z,5.10
2018-04-14T10:54:42.596Z,4.57
2018-04-14T10:57:09.942Z,2.03
2018-04-14T10:59:37.257Z,2.47
2018-04-14T11:02:03.839Z,3.17
2018-04-14T11:04:31.239Z,2.30
2018-04-14T11:06:58.207Z,3.15
2018-04-14T11:09:24.727Z,3.37
2018-04-14T11:11:51.298Z,2.28
2018-04-14T11:14:17.941Z,2.87
2018-04-14T11:16:44.509Z,2.83
2018-04-14T11:19:11.386Z,1.90
2018-04-14T11:21:38.033Z,2.08
2018-04-14T11:24:04.657Z,1.73
2018-04-14T11:26:31.221Z,3.80
2018-04-14T11:28:57.832Z,2.62
2018-04-14T11:31:24.523Z,2.97
2018-04-14T11:33:51.047Z,2.12
2018-04-14T11:36:18.358Z,1.73
2018-04-14T11:38:44.998Z,2.25
2018-04-14T11:41:11.590Z,1.92
2018-04-14T11:43:38.894Z,1.70
2018-04-14T11:46:05.455Z,2.45
2018-04-14T11:48:31.992Z,1.87
2018-04-14T11:50:58.575Z,4.55
2018-04-14T11:53:25.105Z,2.53
2018-04-14T11:55:51.873Z,2.95
2018-04-14T11:58:18.384Z,4.45
2018-04-14T12:00:44.895Z,2.00
2018-04-14T12:03:11.452Z,1.50
2018-04-14T12:05:38.038Z,1.40
2018-04-14T12:08:04.586Z,2.20
2018-04-14T12:10:31.093Z,2.00
2018-04-14T12:12:57.658Z,1.70
2018-04-14T12:15:24.188Z,4.20
2018-04-14T12:17:50.850Z,1.92
2018-04-14T12:20:17.566Z,2.17
2018-04-14T12:22:44.194Z,1.50
2018-04-14T12:25:10.727Z,2.50
2018-04-14T12:27:37.238Z,2.03
2018-04-14T12:30:03.904Z,1.90
2018-04-14T12:32:30.428Z,1.50
2018-04-14T12:34:56.939Z,2.37
2018-04-14T12:37:23.522Z,1.95
2018-04-14T12:39:50.050Z,2.40
2018-04-14T12:42:16.598Z,2.72
2018-04-14T12:44:43.131Z,1.37
2018-04-14T12:47:09.684Z,1.95
2018-04-14T12:49:36.214Z,2.87
2018-04-14T12:52:02.780Z,3.33
2018-04-14T12:54:29.316Z,1.35
2018-04-14T12:56:55.937Z,1.50
2018-04-14T12:59:23.246Z,1.58
2018-04-14T13:01:49.831Z,1.62
2018-04-14T13:04:17.210Z,1.80
2018-04-14T13:06:43.857Z,2.78
2018-04-14T13:09:10.390Z,2.12
2018-04-14T13:11:36.892Z,2.75
2018-04-14T13:14:03.521Z,1.50
2018-04-14T13:16:30.119Z,1.70
2018-04-14T13:18:56.705Z,4.60
2018-04-14T13:21:23.231Z,3.37
2018-04-14T13:23:49.800Z,2.35
2018-04-14T13:26:16.323Z,1.48
2018-04-14T13:28:42.864Z,1.70
2018-04-14T13:31:09.373Z,2.00
2018-04-14T13:33:35.930Z,1.75
2018-04-14T13:36:02.513Z,2.95
2018-04-14T13:38:29.077Z,6.18
2018-04-14T13:40:56.359Z,1.50
2018-04-14T13:43:23.625Z,2.42
2018-04-14T13:45:51.073Z,1.60
2018-04-14T13:48:17.587Z,1.52
2018-04-14T13:50:44.149Z,1.67
2018-04-14T13:53:10.650Z,2.53
2018-04-14T13:55:37.212Z,1.67
2018-04-14T13:58:04.464Z,1.60
2018-04-14T14:00:31.726Z,1.58
2018-04-14T14:02:58.332Z,1.50
2018-04-14T14:05:25.609Z,1.55
2018-04-14T14:07:52.861Z,5.55
2018-04-14T14:10:20.139Z,1.80
2018-04-14T14:12:46.663Z,2.75
2018-04-14T14:15:13.250Z,6.80
2018-04-14T14:17:39.887Z,1.97
2018-04-14T14:20:06.477Z,1.97
2018-04-14T14:22:33.017Z,4.00
2018-04-14T14:24:59.595Z,3.03
2018-04-14T14:27:26.102Z,2.97
2018-04-14T14:29:52.643Z,3.37
2018-04-14T14:32:19.932Z,3.77
2018-04-14T14:34:46.478Z,1.57
2018-04-14T14:37:13.788Z,3.73
2018-04-14T14:39:40.363Z,4.73
2018-04-14T14:42:06.859Z,2.40
2018-04-14T14:44:33.395Z,2.70
2018-04-14T14:46:59.946Z,1.53
2018-04-14T14:49:26.480Z,2.10
2018-04-14T14:51:53.017Z,2.70
2018-04-14T14:54:19.558Z,2.03
2018-04-14T14:56:46.106Z,2.90
2018-04-14T14:59:12.634Z,3.30
2018-04-14T15:01:39.172Z,3.00
2018-04-14T15:04:05.709Z,2.90
2018-04-14T15:06:32.274Z,2.60
2018-04-14T15:08:59.578Z,2.30
2018-04-14T15:11:26.107Z,2.17
2018-04-14T15:13:52.642Z,2.13
2018-04-14T15:16:19.173Z,2.27
2018-04-14T15:18:46.308Z,2.27
2018-04-14T15:21:12.842Z,2.93
2018-04-14T15:23:39.342Z,1.73
2018-04-14T15:26:05.877Z,2.63
2018-04-14T15:28:32.653Z,1.57
2018-04-14T15:30:59.285Z,3.40
2018-04-14T15:33:26.035Z,1.97
2018-04-14T15:35:52.634Z,2.83
2018-04-14T15:38:19.260Z,2.37
2018-04-14T15:40:45.824Z,2.10
2018-04-14T15:43:12.403Z,1.47
2018-04-14T15:45:39.034Z,2.47
2018-04-14T15:48:05.584Z,4.10
2018-04-14T15:50:32.174Z,2.87
2018-04-14T15:52:58.792Z,4.07
2018-04-14T15:55:25.361Z,1.40
2018-04-14T15:57:51.921Z,3.70
2018-04-14T16:00:18.495Z,3.40
2018-04-14T16:02:45.026Z,2.80
2018-04-14T16:05:11.530Z,1.70
2018-04-14T16:07:38.106Z,1.67
2018-04-14T16:10:04.653Z,1.93
2018-04-14T16:12:31.304Z,1.87
2018-04-14T16:14:57.923Z,2.43
2018-04-14T16:17:25.207Z,1.57
2018-04-14T16:19:52.559Z,1.50
2018-04-14T16:22:19.225Z,2.43
2018-04-14T16:24:45.827Z,4.27
2018-04-14T16:27:16.886Z,2.37
2018-04-14T16:29:44.358Z,1.60
2018-04-14T16:32:14.894Z,2.00
2018-04-14T16:34:46.567Z,1.93
2018-04-14T16:37:13.751Z,2.97
2018-04-14T16:39:41.066Z,1.53
2018-04-14T16:42:07.619Z,4.53
2018-04-14T16:44:34.238Z,3.60
2018-04-14T16:47:00.801Z,4.00
2018-04-14T16:49:27.446Z,3.23
2018-04-14T16:51:54.034Z,1.83
2018-04-14T16:54:21.268Z,3.63
2018-04-14T16:56:47.853Z,2.93
2018-04-14T16:59:14.463Z,2.73
2018-04-14T17:01:41.119Z,2.97
2018-04-14T17:04:07.740Z,2.50
2018-04-14T17:06:34.350Z,2.70
2018-04-14T17:09:00.931Z,5.67
2018-04-14T17:11:27.477Z,3.70
2018-04-14T17:13:54.771Z,6.57
2018-04-14T17:16:21.322Z,4.73
2018-04-14T17:18:47.990Z,4.93
2018-04-14T17:21:14.564Z,17.90
2018-04-14T17:23:41.100Z,29.50
2018-04-14T17:26:07.601Z,49.07
2018-04-14T17:28:34.199Z,37.77
2018-04-14T17:31:00.776Z,14.53
2018-04-14T17:33:27.363Z,25.23
2018-04-14T17:35:54.722Z,22.10
2018-04-14T17:38:21.281Z,8.60
2018-04-14T17:40:47.915Z,8.07
2018-04-14T17:43:14.473Z,13.40
2018-04-14T17:45:40.971Z,28.67
2018-04-14T17:48:07.487Z,23.03
2018-04-14T17:50:34.019Z,19.30
2018-04-14T17:53:00.548Z,16.63
2018-04-14T17:55:27.081Z,8.93
2018-04-14T17:57:54.332Z,8.27
2018-04-14T18:00:20.884Z,6.00
2018-04-14T18:02:48.341Z,9.13
2018-04-14T18:05:14.851Z,20.13
2018-04-14T18:07:41.456Z,9.97
2018-04-14T18:10:08.064Z,13.90
2018-04-14T18:12:34.615Z,8.93
2018-04-14T18:17:40.002Z,20.67
2018-04-14T18:20:06.678Z,19.13
2018-04-14T18:22:34.552Z,7.20
2018-04-14T18:25:01.166Z,12.27
2018-04-14T18:27:27.801Z,5.90
2018-04-14T18:32:38.507Z,4.90
2018-04-14T18:35:05.095Z,5.93
2018-04-14T18:37:32.478Z,9.17
2018-04-14T18:42:57.010Z,5.80
2018-04-14T18:45:23.701Z,6.70
2018-04-14T18:47:56.315Z,4.57
2018-04-14T18:50:46.590Z,3.83
2018-04-14T18:53:13.212Z,3.60
2018-04-14T18:55:39.838Z,4.40
2018-04-14T18:58:06.535Z,5.90
2018-04-14T19:00:33.171Z,3.30
2018-04-14T19:02:59.741Z,5.17
2018-04-14T19:05:27.047Z,4.40
2018-04-14T19:07:53.605Z,7.43
2018-04-14T19:10:20.191Z,3.73
2018-04-14T19:12:46.749Z,3.63
2018-04-14T19:15:13.273Z,8.50
2018-04-14T19:17:39.824Z,4.87
2018-04-14T19:20:06.428Z,3.20
2018-04-14T19:22:34.989Z,4.60
2018-04-14T19:25:01.525Z,8.30
2018-04-14T19:27:28.787Z,11.80
2018-04-14T19:29:56.041Z,5.17
2018-04-14T19:32:23.635Z,5.87
2018-04-14T19:34:50.174Z,5.97
2018-04-14T19:37:16.731Z,6.77
2018-04-14T19:39:43.326Z,9.90
2018-04-14T19:42:09.868Z,5.53
2018-04-14T19:44:36.430Z,7.00
2018-04-14T19:47:03.020Z,4.83
2018-04-14T19:49:34.316Z,6.87
2018-04-14T19:52:03.297Z,5.67
2018-04-14T19:54:31.767Z,6.60
2018-04-14T19:57:01.345Z,9.73
2018-04-14T19:59:28.676Z,7.50
2018-04-14T20:01:57.485Z,4.37
2018-04-14T20:04:25.023Z,10.00
2018-04-14T20:06:54.117Z,7.93
2018-04-14T20:09:20.859Z,4.40
2018-04-14T20:11:47.854Z,9.13
2018-04-14T20:14:14.467Z,7.80
2018-04-14T20:16:41.856Z,10.57
2018-04-14T20:19:08.478Z,5.27
2018-04-14T20:21:35.052Z,8.73
2018-04-14T20:24:01.631Z,10.07
2018-04-14T20:26:28.909Z,12.40
2018-04-14T20:28:55.582Z,8.53
2018-04-14T20:31:22.883Z,7.80
2018-04-14T20:33:49.519Z,10.33
2018-04-14T20:36:16.171Z,7.90
2018-04-14T20:38:42.725Z,4.57
2018-04-14T20:41:09.381Z,8.33
2018-04-14T20:43:36.068Z,7.53
2018-04-14T20:46:02.725Z,5.50
2018-04-14T20:48:29.377Z,9.57
2018-04-14T20:50:56.737Z,10.50
2018-04-14T20:53:23.987Z,7.67
2018-04-14T20:55:50.724Z,10.53
2018-04-14T20:58:17.407Z,8.03
2018-04-14T21:00:44.033Z,12.70
2018-04-14T21:03:10.731Z,8.97
2018-04-14T21:05:37.370Z,7.33
2018-04-14T21:08:04.025Z,5.23
2018-04-14T21:10:30.635Z,8.07
2018-04-14T21:12:57.243Z,6.77
2018-04-14T21:15:23.866Z,8.73
2018-04-14T21:17:50.404Z,5.50
2018-04-14T21:20:17.040Z,8.57
2018-04-14T21:22:44.641Z,5.77
2018-04-14T21:25:20.093Z,9.73
2018-04-14T21:27:46.811Z,17.73
2018-04-14T21:30:13.422Z,13.40
2018-04-14T21:32:40.159Z,9.30
2018-04-14T21:35:07.053Z,11.90
2018-04-14T21:37:34.630Z,11.33
2018-04-14T21:40:01.267Z,9.53
2018-04-14T21:42:27.893Z,10.63
2018-04-14T21:44:54.627Z,5.73
2018-04-14T21:47:21.271Z,8.20
2018-04-14T21:49:47.908Z,7.73
2018-04-14T21:52:14.536Z,11.30
2018-04-14T21:54:41.164Z,9.10
2018-04-14T21:57:07.775Z,9.70
2018-04-14T21:59:35.269Z,9.67
2018-04-14T22:02:02.652Z,10.03
2018-04-14T22:04:29.235Z,7.37
2018-04-14T22:06:56.186Z,15.10
2018-04-14T22:09:22.761Z,11.53
2018-04-14T22:11:49.478Z,9.47
2018-04-14T22:14:34.867Z,8.60
2018-04-14T22:17:02.305Z,9.03
2018-04-14T22:19:29.013Z,9.20
2018-04-14T22:21:55.618Z,7.60
2018-04-14T22:24:22.224Z,8.40
2018-04-14T22:26:49.299Z,5.37
2018-04-14T22:29:17.143Z,11.20
2018-04-14T22:31:43.788Z,13.30
2018-04-14T22:34:11.112Z,7.93
2018-04-14T22:36:37.804Z,8.17
2018-04-14T22:39:04.395Z,7.77
2018-04-14T22:41:30.909Z,11.33
2018-04-14T22:43:57.448Z,12.80
2018-04-14T22:46:24.695Z,5.67
2018-04-14T22:48:51.347Z,7.20
2018-04-14T22:51:17.972Z,14.07
2018-04-14T22:53:44.469Z,7.53
2018-04-14T22:56:10.992Z,7.33
2018-04-14T22:58:37.484Z,9.57
2018-04-14T23:01:07.695Z,7.43
2018-04-14T23:03:35.028Z,7.77
2018-04-14T23:06:01.564Z,5.27
2018-04-14T23:08:28.093Z,7.77
2018-04-14T23:10:55.361Z,5.80
2018-04-14T23:13:21.837Z,3.87
2018-04-14T23:15:48.388Z,6.13
2018-04-14T23:18:15.689Z,6.33
2018-04-14T23:20:42.218Z,5.00
2018-04-14T23:23:08.735Z,5.13
2018-04-14T23:25:36.051Z,5.63
2018-04-14T23:28:02.595Z,6.53
2018-04-14T23:30:29.124Z,5.23
2018-04-14T23:32:55.673Z,7.33
2018-04-14T23:35:22.219Z,5.73
2018-04-14T23:37:49.496Z,6.30
2018-04-14T23:40:16.004Z,7.77
2018-04-14T23:42:42.513Z,5.63
2018-04-14T23:45:09.039Z,8.80
2018-04-14T23:47:35.574Z,8.03
2018-04-14T23:50:02.123Z,6.63
2018-04-14T23:52:28.645Z,7.23
2018-04-14T23:54:55.197Z,6.37
2018-04-14T23:57:21.721Z,9.77
2018-04-14T23:59:48.244Z,6.23
